Hay River / Merlyn Carter Airport

Airport
ICAO code: 
CYHY
IATA Code: 
YHY
Summary
ICAO Region: 
NAM
Territory: 
Location: 
Hay River, Northwest Territories
Serving: 
Hay River
Elevation: 
541 ft
Coordinates: 
Aerial View: 
60° 50' 22.736" N, 115° 47' 4.632" W
Airport BS: 
Non Avian Wildlife Hazards to Aircraft
Airport CFIT: 
Altimeter Temperature Error Correction
Airport GND: 
Aircraft Ground De/Anti Icing
Airport RE: 
Landing on Contaminated Runways
Metar
Observation
CYHY 272100Z VRB02KT 15SM FEW025 SCT240 M19/M23 A2996 RMK SC1CI2 SLP166
Station
Hay River, N. W. T.
Date/Time
2021-11-27 21:00:00
Wind speed
02 kts
Lowest cloud amount
few clouds
Temperature
-19°C
Dew point
-23°C
Humidity
70%
Weather condition
n/a

Description

Regional airport serving the community of Hay River, Northwest Territories, Canada.

Climatology

Subarctic climate (Köppen climate classification Dfc) - long, usually very cold winters, and short, cool to mild summers.

Runways

Designator Length Width Surface Rops
5/23 1220 46 COM Yes/Yes
14/32 1829 46 ASP Yes/Yes
Airport map: 
Aerial View: 

SKYbrary Partners:

Safety knowledge contributed by: